Time;durP1;ratioP1;P1;durP2;ratioP2;P2;SDS_P1;SDS_P2;PMS_P1;PMS_P2;Temp;Humidity;BMP_temperature;BMP_pressure;BME280_temperature;BME280_humidity;BME280_pressure;Samples;Min_cycle;Max_cycle;Signal;HPM_P1;HPM_P2
2023/01/28 00:01:14;;;;;;;;;;;3.10;99.90;;;;;;5119173;27;19912;-57
2023/01/28 00:03:40;;;;;;;;;;;3.10;99.90;;;;;;5113373;27;19950;-58
2023/01/28 00:06:07;;;;;;;;;;;3.10;99.90;;;;;;5114957;27;19912;-56
2023/01/28 00:08:32;;;;;;;;;;;3.10;99.90;;;;;;5133571;27;19934;-56
2023/01/28 00:11:02;;;;;;;;;;;3.10;99.90;;;;;;5129694;27;20362;-57
2023/01/28 00:13:28;;;;;;;;;;;3.10;99.90;;;;;;5125980;27;19997;-57
2023/01/28 00:15:58;;;;;;;;;;;3.10;99.90;;;;;;5133374;27;19959;-57
2023/01/28 00:18:24;;;;;;;;;;;3.10;99.90;;;;;;5114279;28;19912;-57
2023/01/28 00:20:59;;;;;;;;;;;3.10;99.90;;;;;;5113459;28;19907;-56
2023/01/28 00:23:26;;;;;;;;;;;3.10;99.90;;;;;;5112715;28;19970;-57
2023/01/28 00:25:53;;;;;;;;;;;3.10;99.90;;;;;;5113517;28;19908;-57
2023/01/28 00:28:18;;;;;;;;;;;3.10;99.90;;;;;;5113966;27;19907;-57
2023/01/28 00:30:44;;;;;;;;;;;3.10;99.90;;;;;;5133211;27;19914;-57
2023/01/28 00:33:09;;;;;;;;;;;3.10;99.90;;;;;;5133914;27;20020;-57
2023/01/28 00:35:35;;;;;;;;;;;3.10;99.90;;;;;;5133837;27;19923;-57
2023/01/28 00:38:02;;;;;;;;;;;3.10;99.90;;;;;;5132968;27;20362;-57
2023/01/28 00:40:27;;;;;;;;;;;3.00;99.90;;;;;;5133914;27;20278;-57
2023/01/28 00:42:53;;;;;;;;;;;3.10;99.90;;;;;;5133819;27;20358;-56
2023/01/28 00:45:19;;;;;;;;;;;3.10;99.90;;;;;;5133110;27;19951;-56
2023/01/28 00:47:44;;;;;;;;;;;3.00;99.90;;;;;;5127479;27;20450;-57
2023/01/28 00:50:10;;;;;;;;;;;3.10;99.90;;;;;;5112260;28;19912;-57
2023/01/28 00:52:35;;;;;;;;;;;3.00;99.90;;;;;;5113063;28;19912;-56
2023/01/28 00:55:01;;;;;;;;;;;3.00;99.90;;;;;;5112628;28;19968;-57
2023/01/28 00:57:27;;;;;;;;;;;3.00;99.90;;;;;;5113009;28;19927;-57
2023/01/28 00:59:52;;;;;;;;;;;3.00;99.90;;;;;;5133252;28;20358;-57
2023/01/28 01:02:18;;;;;;;;;;;3.00;99.90;;;;;;5130243;28;19908;-57
2023/01/28 01:04:53;;;;;;;;;;;3.00;99.90;;;;;;5112193;28;20475;-57
2023/01/28 01:07:20;;;;;;;;;;;3.00;99.90;;;;;;5130316;28;19907;-57
2023/01/28 01:09:46;;;;;;;;;;;3.00;99.90;;;;;;5133613;28;19911;-57
2023/01/28 01:12:11;;;;;;;;;;;3.00;99.90;;;;;;5132363;28;19990;-57
2023/01/28 01:14:37;;;;;;;;;;;3.00;99.90;;;;;;5114905;27;19934;-56
2023/01/28 01:17:02;;;;;;;;;;;2.90;99.90;;;;;;5127175;27;19916;-57
2023/01/28 01:19:28;;;;;;;;;;;2.90;99.90;;;;;;5116351;28;19948;-57
2023/01/28 01:21:55;;;;;;;;;;;2.90;99.90;;;;;;5129662;27;19907;-57
2023/01/28 01:24:20;;;;;;;;;;;2.90;99.90;;;;;;5137540;27;19908;-57
2023/01/28 01:26:46;;;;;;;;;;;2.90;99.90;;;;;;5136776;27;19960;-57
2023/01/28 01:29:11;;;;;;;;;;;2.90;99.90;;;;;;5137658;27;19914;-57
2023/01/28 01:31:37;;;;;;;;;;;2.90;99.90;;;;;;5137354;27;20357;-58
2023/01/28 01:34:03;;;;;;;;;;;2.90;99.90;;;;;;5123812;27;19915;-57
2023/01/28 01:36:28;;;;;;;;;;;2.80;99.90;;;;;;5116766;28;20289;-57
2023/01/28 01:38:54;;;;;;;;;;;2.80;99.90;;;;;;5116642;28;20011;-57
2023/01/28 01:41:30;;;;;;;;;;;2.80;99.90;;;;;;5115889;28;19908;-57
2023/01/28 01:43:57;;;;;;;;;;;2.90;99.90;;;;;;5116514;28;19996;-57
2023/01/28 01:46:26;;;;;;;;;;;2.80;99.90;;;;;;5115744;28;20267;-57
2023/01/28 01:48:52;;;;;;;;;;;2.80;99.90;;;;;;5116434;28;20282;-57
2023/01/28 01:51:20;;;;;;;;;;;2.80;99.90;;;;;;5116887;28;20354;-57
2023/01/28 01:53:48;;;;;;;;;;;2.80;99.90;;;;;;5115606;28;19908;-57
2023/01/28 01:56:16;;;;;;;;;;;2.80;99.90;;;;;;5116107;27;19920;-57
2023/01/28 01:58:42;;;;;;;;;;;2.90;99.90;;;;;;5126527;27;19918;-57
2023/01/28 02:01:08;;;;;;;;;;;2.90;99.90;;;;;;5134338;27;19911;-56
2023/01/28 02:03:40;;;;;;;;;;;2.90;99.90;;;;;;5135183;27;19911;-57
2023/01/28 02:06:05;;;;;;;;;;;2.90;99.90;;;;;;5117038;27;20354;-57
2023/01/28 02:08:31;;;;;;;;;;;2.90;99.90;;;;;;5123154;27;19918;-57
2023/01/28 02:11:01;;;;;;;;;;;2.90;99.90;;;;;;5136310;27;19942;-57
2023/01/28 02:13:29;;;;;;;;;;;2.80;99.90;;;;;;5136717;27;20010;-57
2023/01/28 02:15:56;;;;;;;;;;;2.90;99.90;;;;;;5126386;27;19920;-57
2023/01/28 02:18:21;;;;;;;;;;;2.90;99.90;;;;;;5132682;27;19915;-57
2023/01/28 02:20:56;;;;;;;;;;;2.90;99.90;;;;;;5133538;27;19916;-57
2023/01/28 02:23:36;;;;;;;;;;;2.90;99.90;;;;;;5115066;28;19908;-57
2023/01/28 02:26:08;;;;;;;;;;;2.90;99.90;;;;;;5115788;28;20385;-57
2023/01/28 02:28:36;;;;;;;;;;;2.90;99.90;;;;;;5114838;28;19934;-57
2023/01/28 02:31:20;;;;;;;;;;;2.90;99.90;;;;;;5115696;28;19907;-56
2023/01/28 02:33:54;;;;;;;;;;;2.90;99.90;;;;;;5125028;27;19950;-57
2023/01/28 02:36:20;;;;;;;;;;;2.90;99.90;;;;;;5135540;27;19912;-57
2023/01/28 02:38:47;;;;;;;;;;;2.90;99.90;;;;;;5136250;27;20362;-57
2023/01/28 02:41:21;;;;;;;;;;;2.90;99.90;;;;;;5136149;27;19911;-57
2023/01/28 02:43:46;;;;;;;;;;;2.90;99.90;;;;;;5135402;27;19911;-57
2023/01/28 02:49:04;;;;;;;;;;;2.90;99.90;;;;;;5136310;27;19968;-57
2023/01/28 02:51:33;;;;;;;;;;;2.90;99.90;;;;;;5125433;27;19912;-57
2023/01/28 02:54:02;;;;;;;;;;;2.90;99.90;;;;;;5114972;28;19914;-57
2023/01/28 02:56:31;;;;;;;;;;;2.90;99.90;;;;;;5118582;27;20281;-57
2023/01/28 02:58:59;;;;;;;;;;;2.90;99.90;;;;;;5132871;27;19907;-57
2023/01/28 03:01:57;;;;;;;;;;;2.90;99.90;;;;;;5135019;27;20002;-57
2023/01/28 03:04:30;;;;;;;;;;;2.90;99.90;;;;;;5132045;27;19965;-57
2023/01/28 03:06:59;;;;;;;;;;;2.90;99.90;;;;;;5134868;27;20085;-57
2023/01/28 03:09:25;;;;;;;;;;;2.90;99.90;;;;;;5135333;27;19915;-57
2023/01/28 03:36:47;;;;;;;;;;;2.80;99.90;;;;;;5135011;27;20364;-57
2023/01/28 03:39:12;;;;;;;;;;;2.80;99.90;;;;;;5116266;27;19922;-56
2023/01/28 03:41:38;;;;;;;;;;;2.80;99.90;;;;;;5114289;27;19912;-57
2023/01/28 03:46:47;;;;;;;;;;;2.80;99.90;;;;;;5132663;27;19942;-56
2023/01/28 03:49:14;;;;;;;;;;;2.80;99.90;;;;;;5134254;27;20358;-57
2023/01/28 03:51:39;;;;;;;;;;;2.80;99.90;;;;;;5134422;27;20377;-57
2023/01/28 03:54:05;;;;;;;;;;;2.80;99.90;;;;;;5132213;27;20006;-57
2023/01/28 03:56:39;;;;;;;;;;;2.80;99.90;;;;;;5134249;27;20324;-57
2023/01/28 03:59:05;;;;;;;;;;;2.80;99.90;;;;;;5133351;27;19964;-56
2023/01/28 04:01:30;;;;;;;;;;;2.80;99.90;;;;;;5131923;27;19916;-57
2023/01/28 04:03:56;;;;;;;;;;;2.80;99.90;;;;;;5131177;27;19912;-57
2023/01/28 04:06:21;;;;;;;;;;;2.80;99.90;;;;;;5118227;27;19916;-57
2023/01/28 04:08:51;;;;;;;;;;;2.80;99.90;;;;;;5132927;27;19937;-57
2023/01/28 04:11:19;;;;;;;;;;;2.80;99.90;;;;;;5132725;27;19911;-57
2023/01/28 04:13:45;;;;;;;;;;;2.70;99.90;;;;;;5120801;27;19919;-57
2023/01/28 04:16:11;;;;;;;;;;;2.70;99.90;;;;;;5128673;27;19915;-56
2023/01/28 04:18:36;;;;;;;;;;;2.70;99.90;;;;;;5122135;27;20404;-57
2023/01/28 04:21:02;;;;;;;;;;;2.80;99.90;;;;;;5133854;27;19911;-57
2023/01/28 04:23:28;;;;;;;;;;;2.80;99.90;;;;;;5134105;27;20007;-57
2023/01/28 04:25:54;;;;;;;;;;;2.70;99.90;;;;;;5134114;27;19911;-57
2023/01/28 04:28:20;;;;;;;;;;;2.80;99.90;;;;;;5133302;27;20376;-57
2023/01/28 04:30:45;;;;;;;;;;;2.80;99.90;;;;;;5125684;27;20281;-57
2023/01/28 04:33:11;;;;;;;;;;;2.80;99.90;;;;;;5113392;28;20073;-57
2023/01/28 04:35:36;;;;;;;;;;;2.80;99.90;;;;;;5112635;28;19923;-57
2023/01/28 04:38:01;;;;;;;;;;;2.80;99.90;;;;;;5113284;28;19946;-58
2023/01/28 04:40:27;;;;;;;;;;;2.80;99.90;;;;;;5113487;28;19915;-57
2023/01/28 04:42:53;;;;;;;;;;;2.80;99.90;;;;;;5112462;28;19918;-57
2023/01/28 04:45:19;;;;;;;;;;;2.80;99.90;;;;;;5118658;28;20346;-57
2023/01/28 04:47:44;;;;;;;;;;;2.80;99.90;;;;;;5133858;27;19955;-57
2023/01/28 04:50:10;;;;;;;;;;;2.70;99.90;;;;;;5132407;27;19911;-56
2023/01/28 04:52:35;;;;;;;;;;;2.80;99.90;;;;;;5126480;27;20308;-58
2023/01/28 04:55:02;;;;;;;;;;;2.70;99.90;;;;;;5112731;28;19945;-57
2023/01/28 04:57:27;;;;;;;;;;;2.70;99.90;;;;;;5112378;28;19912;-57
2023/01/28 04:59:53;;;;;;;;;;;2.70;99.90;;;;;;5115788;28;19917;-56
2023/01/28 05:02:19;;;;;;;;;;;2.70;99.90;;;;;;5133844;28;19930;-56
2023/01/28 05:04:44;;;;;;;;;;;2.70;99.90;;;;;;5131093;28;20289;-57
2023/01/28 05:07:09;;;;;;;;;;;2.80;99.90;;;;;;5127672;28;20354;-57
2023/01/28 05:09:35;;;;;;;;;;;2.80;99.90;;;;;;5113016;28;19918;-57
2023/01/28 05:12:01;;;;;;;;;;;2.70;99.90;;;;;;5132400;28;19953;-56
2023/01/28 05:14:26;;;;;;;;;;;2.70;99.90;;;;;;5113234;28;19978;-56
2023/01/28 05:16:52;;;;;;;;;;;2.70;99.90;;;;;;5129437;28;20002;-56
2023/01/28 05:19:17;;;;;;;;;;;2.70;99.90;;;;;;5132395;28;20278;-57
2023/01/28 05:21:43;;;;;;;;;;;2.70;99.90;;;;;;5133133;28;19916;-56
2023/01/28 05:24:08;;;;;;;;;;;2.70;99.90;;;;;;5133120;28;19911;-57
2023/01/28 05:26:34;;;;;;;;;;;2.70;99.90;;;;;;5132335;28;19912;-56
2023/01/28 05:28:59;;;;;;;;;;;2.70;99.90;;;;;;5133255;28;19911;-57
2023/01/28 05:31:25;;;;;;;;;;;2.70;99.90;;;;;;5132314;28;19912;-57
2023/01/28 05:33:51;;;;;;;;;;;2.60;99.90;;;;;;5133356;28;19908;-56
2023/01/28 05:36:17;;;;;;;;;;;2.60;99.90;;;;;;5131458;28;20103;-56
2023/01/28 05:38:42;;;;;;;;;;;2.60;99.90;;;;;;5130266;28;19915;-56
2023/01/28 05:41:08;;;;;;;;;;;2.60;99.90;;;;;;5112676;28;19916;-57
2023/01/28 05:43:33;;;;;;;;;;;2.60;99.90;;;;;;5117820;28;19911;-57
2023/01/28 05:45:59;;;;;;;;;;;2.60;99.90;;;;;;5120465;28;19919;-56
2023/01/28 05:48:24;;;;;;;;;;;2.60;99.90;;;;;;5112812;28;20290;-56
2023/01/28 05:50:50;;;;;;;;;;;2.60;99.90;;;;;;5112509;28;19915;-56
2023/01/28 05:53:15;;;;;;;;;;;2.60;99.90;;;;;;5122898;28;19911;-56
2023/01/28 05:55:41;;;;;;;;;;;2.50;99.90;;;;;;5113908;28;20015;-56
2023/01/28 05:58:06;;;;;;;;;;;2.50;99.90;;;;;;5113402;28;19916;-56
2023/01/28 06:00:32;;;;;;;;;;;2.50;99.90;;;;;;5123147;28;19938;-56
2023/01/28 06:02:57;;;;;;;;;;;2.50;99.90;;;;;;5114972;28;20010;-56
2023/01/28 06:05:23;;;;;;;;;;;2.50;99.90;;;;;;5116186;28;19938;-56
2023/01/28 06:07:48;;;;;;;;;;;2.50;99.90;;;;;;5132191;27;20169;-56
2023/01/28 06:10:16;;;;;;;;;;;2.50;99.90;;;;;;5131391;27;20452;-56
2023/01/28 06:12:42;;;;;;;;;;;2.50;99.90;;;;;;5115965;28;20359;-56
2023/01/28 06:15:08;;;;;;;;;;;2.50;99.90;;;;;;5120523;27;19926;-56
2023/01/28 06:17:33;;;;;;;;;;;2.40;99.90;;;;;;5122818;27;19912;-56
2023/01/28 06:19:59;;;;;;;;;;;2.50;99.90;;;;;;5115880;28;19950;-56
2023/01/28 06:22:24;;;;;;;;;;;2.50;99.90;;;;;;5135762;27;19907;-56
2023/01/28 06:24:50;;;;;;;;;;;2.50;99.90;;;;;;5136415;27;19907;-56
2023/01/28 06:27:15;;;;;;;;;;;2.50;99.90;;;;;;5136284;27;20246;-56
2023/01/28 06:29:41;;;;;;;;;;;2.50;99.90;;;;;;5135643;27;19994;-56
2023/01/28 06:32:06;;;;;;;;;;;2.50;99.90;;;;;;5136169;27;19911;-56
2023/01/28 06:34:32;;;;;;;;;;;2.50;99.90;;;;;;5116203;27;19916;-56
2023/01/28 06:36:57;;;;;;;;;;;2.50;99.90;;;;;;5114815;28;20339;-56
2023/01/28 06:39:23;;;;;;;;;;;2.40;99.90;;;;;;5115725;28;20413;-56
2023/01/28 06:41:49;;;;;;;;;;;2.40;99.90;;;;;;5114715;28;19907;-56
2023/01/28 06:44:15;;;;;;;;;;;2.40;99.90;;;;;;5115429;28;19907;-56
2023/01/28 06:46:41;;;;;;;;;;;2.40;99.90;;;;;;5129270;27;19907;-56
2023/01/28 06:49:07;;;;;;;;;;;2.40;99.90;;;;;;5134080;27;19937;-56
2023/01/28 06:51:32;;;;;;;;;;;2.40;99.90;;;;;;5126608;27;19926;-56
2023/01/28 06:53:57;;;;;;;;;;;2.40;99.90;;;;;;5131901;27;19911;-56
2023/01/28 06:56:23;;;;;;;;;;;2.40;99.90;;;;;;5134171;27;19962;-56
2023/01/28 06:58:48;;;;;;;;;;;2.40;99.90;;;;;;5135341;27;20309;-56
2023/01/28 07:01:14;;;;;;;;;;;2.30;99.90;;;;;;5133807;27;19916;-56
2023/01/28 07:03:40;;;;;;;;;;;2.30;99.90;;;;;;5116033;27;19922;-56
2023/01/28 07:06:05;;;;;;;;;;;2.30;99.90;;;;;;5127224;27;19911;-56
2023/01/28 07:08:31;;;;;;;;;;;2.30;99.90;;;;;;5115048;28;19908;-56
2023/01/28 07:10:57;;;;;;;;;;;2.30;99.90;;;;;;5122541;27;19907;-56
2023/01/28 07:13:23;;;;;;;;;;;2.30;99.90;;;;;;5135725;27;20443;-57
2023/01/28 07:15:49;;;;;;;;;;;2.30;99.90;;;;;;5131346;27;20374;-56
2023/01/28 07:18:14;;;;;;;;;;;2.30;99.90;;;;;;5129711;27;19911;-57
2023/01/28 07:20:40;;;;;;;;;;;2.30;99.90;;;;;;5135346;27;19926;-57
2023/01/28 07:23:06;;;;;;;;;;;2.30;99.90;;;;;;5135162;27;19907;-57
2023/01/28 07:25:31;;;;;;;;;;;2.30;99.90;;;;;;5134280;27;19929;-57
2023/01/28 07:27:57;;;;;;;;;;;2.20;99.90;;;;;;5134102;27;19927;-57
2023/01/28 07:30:23;;;;;;;;;;;2.30;99.90;;;;;;5133654;27;19942;-56
2023/01/28 07:32:53;;;;;;;;;;;2.30;99.90;;;;;;5133010;27;19935;-55
2023/01/28 07:35:18;;;;;;;;;;;2.20;99.90;;;;;;5130993;27;20014;-57
2023/01/28 07:37:49;;;;;;;;;;;2.20;99.90;;;;;;5120017;27;20414;-56
2023/01/28 07:40:15;;;;;;;;;;;2.20;99.90;;;;;;5122543;27;20361;-56
2023/01/28 07:42:41;;;;;;;;;;;2.20;99.90;;;;;;5133714;27;19918;-56
2023/01/28 07:45:06;;;;;;;;;;;2.20;99.90;;;;;;5133489;27;20350;-56
2023/01/28 07:47:32;;;;;;;;;;;2.20;99.90;;;;;;5134779;27;19908;-56
2023/01/28 07:49:57;;;;;;;;;;;2.30;99.90;;;;;;5115937;27;19911;-56
2023/01/28 07:52:23;;;;;;;;;;;2.20;99.90;;;;;;5112265;28;19920;-56
2023/01/28 07:54:48;;;;;;;;;;;2.20;99.90;;;;;;5127444;27;19923;-56
2023/01/28 07:57:21;;;;;;;;;;;2.20;99.90;;;;;;5132048;27;19933;-56
2023/01/28 07:59:48;;;;;;;;;;;2.20;99.90;;;;;;5131837;27;20360;-56
2023/01/28 08:02:13;;;;;;;;;;;2.10;99.90;;;;;;5133870;27;20106;-56
2023/01/28 08:04:39;;;;;;;;;;;2.10;99.90;;;;;;5133566;27;19915;-56
2023/01/28 08:07:05;;;;;;;;;;;2.10;99.90;;;;;;5130901;27;20362;-56
2023/01/28 08:09:33;;;;;;;;;;;2.00;99.90;;;;;;5114328;28;19919;-55
2023/01/28 08:11:58;;;;;;;;;;;2.00;99.90;;;;;;5124734;27;20411;-57
2023/01/28 08:14:24;;;;;;;;;;;1.90;99.90;;;;;;5132919;27;19915;-56
2023/01/28 08:16:49;;;;;;;;;;;1.90;99.90;;;;;;5132539;27;19919;-56
2023/01/28 08:19:17;;;;;;;;;;;1.90;99.90;;;;;;5133103;27;19916;-55
2023/01/28 08:21:42;;;;;;;;;;;1.90;99.90;;;;;;5132866;27;19908;-55
2023/01/28 08:24:08;;;;;;;;;;;1.90;99.90;;;;;;5112523;27;19945;-56
2023/01/28 08:26:33;;;;;;;;;;;1.90;99.90;;;;;;5124072;27;19918;-55
2023/01/28 08:28:59;;;;;;;;;;;1.90;99.90;;;;;;5132555;27;19996;-55
2023/01/28 08:31:24;;;;;;;;;;;1.90;99.90;;;;;;5131970;27;19921;-56
2023/01/28 08:33:49;;;;;;;;;;;2.00;99.90;;;;;;5132389;27;19918;-55
2023/01/28 08:36:15;;;;;;;;;;;1.90;99.90;;;;;;5115995;27;19923;-55
2023/01/28 08:38:42;;;;;;;;;;;2.00;99.90;;;;;;5113293;28;19999;-55
2023/01/28 08:41:07;;;;;;;;;;;2.00;99.90;;;;;;5116888;27;19954;-56
2023/01/28 08:43:33;;;;;;;;;;;2.00;99.90;;;;;;5112196;28;19958;-56
2023/01/28 08:45:58;;;;;;;;;;;2.00;99.90;;;;;;5113158;28;19919;-56
2023/01/28 08:48:24;;;;;;;;;;;2.00;99.90;;;;;;5112255;28;19946;-56
2023/01/28 08:50:49;;;;;;;;;;;2.10;99.90;;;;;;5124698;27;19926;-56
2023/01/28 08:53:16;;;;;;;;;;;2.20;99.90;;;;;;5117122;28;19912;-55
2023/01/28 08:55:42;;;;;;;;;;;2.20;99.90;;;;;;5130495;27;20433;-55
2023/01/28 08:58:11;;;;;;;;;;;2.30;99.90;;;;;;5131227;28;19923;-56
2023/01/28 09:00:37;;;;;;;;;;;2.30;99.90;;;;;;5132939;28;19915;-56
2023/01/28 09:03:03;;;;;;;;;;;2.40;99.90;;;;;;5132209;28;19911;-56
2023/01/28 09:05:29;;;;;;;;;;;2.50;99.90;;;;;;5132820;28;19907;-57
2023/01/28 09:07:54;;;;;;;;;;;2.60;99.90;;;;;;5133579;28;20064;-57
2023/01/28 09:10:20;;;;;;;;;;;2.60;99.90;;;;;;5115925;28;19907;-57
2023/01/28 09:12:46;;;;;;;;;;;2.60;99.90;;;;;;5115588;28;19912;-56
2023/01/28 09:15:11;;;;;;;;;;;2.60;99.90;;;;;;5112671;28;19927;-56
2023/01/28 09:17:37;;;;;;;;;;;2.60;99.90;;;;;;5112334;28;20407;-56
2023/01/28 09:20:03;;;;;;;;;;;2.60;99.90;;;;;;5127672;28;19911;-56
2023/01/28 09:22:29;;;;;;;;;;;2.70;99.90;;;;;;5133401;28;19912;-57
2023/01/28 09:24:54;;;;;;;;;;;2.70;99.90;;;;;;5132707;28;20323;-57
2023/01/28 09:27:20;;;;;;;;;;;2.90;99.90;;;;;;5115486;28;19915;-56
2023/01/28 09:29:45;;;;;;;;;;;2.90;99.90;;;;;;5112961;28;19908;-56
2023/01/28 09:32:11;;;;;;;;;;;3.00;99.90;;;;;;5111996;28;20082;-56
2023/01/28 09:34:36;;;;;;;;;;;3.00;99.90;;;;;;5112753;28;20367;-56
2023/01/28 09:37:02;;;;;;;;;;;3.00;99.90;;;;;;5114171;28;19915;-56
2023/01/28 09:39:27;;;;;;;;;;;3.00;99.90;;;;;;5130609;27;19907;-57
2023/01/28 09:41:58;;;;;;;;;;;3.00;99.90;;;;;;5116592;27;20378;-56
2023/01/28 09:44:44;;;;;;;;;;;3.00;99.90;;;;;;5116722;28;19948;-57
2023/01/28 09:47:33;;;;;;;;;;;3.00;99.90;;;;;;5083842;27;20395;-56
2023/01/28 09:50:02;;;;;;;;;;;3.00;99.90;;;;;;5109949;27;19926;-56
2023/01/28 09:52:29;;;;;;;;;;;2.90;99.90;;;;;;5115774;28;19907;-56
2023/01/28 09:55:01;;;;;;;;;;;2.90;99.90;;;;;;5118619;27;20274;-57
2023/01/28 09:57:48;;;;;;;;;;;2.90;99.90;;;;;;5125076;27;19920;-55
2023/01/28 10:00:15;;;;;;;;;;;3.00;99.90;;;;;;5123795;27;20366;-55
2023/01/28 10:02:50;;;;;;;;;;;3.10;99.90;;;;;;5124858;27;19912;-55
2023/01/28 10:05:15;;;;;;;;;;;3.20;99.90;;;;;;5121723;27;20294;-56
2023/01/28 10:07:50;;;;;;;;;;;3.30;99.90;;;;;;5130722;27;19964;-56
2023/01/28 10:10:39;;;;;;;;;;;3.40;99.90;;;;;;5130488;27;19959;-56
2023/01/28 10:13:19;;;;;;;;;;;3.50;99.90;;;;;;5133545;27;19961;-56
2023/01/28 10:15:54;;;;;;;;;;;3.60;99.90;;;;;;5128687;27;19924;-56
2023/01/28 10:18:25;;;;;;;;;;;3.60;99.90;;;;;;5115082;28;20438;-56
2023/01/28 10:20:55;;;;;;;;;;;3.70;99.90;;;;;;5126084;27;19918;-56
2023/01/28 10:23:27;;;;;;;;;;;3.80;99.90;;;;;;5135642;27;19908;-56
2023/01/28 10:25:56;;;;;;;;;;;3.90;99.90;;;;;;5135175;27;20282;-55
2023/01/28 10:28:24;;;;;;;;;;;4.00;99.90;;;;;;5128953;27;19998;-56
2023/01/28 10:30:50;;;;;;;;;;;4.00;99.90;;;;;;5127352;27;19943;-56
2023/01/28 10:33:17;;;;;;;;;;;4.00;99.90;;;;;;5136320;27;19907;-56
2023/01/28 10:35:43;;;;;;;;;;;3.90;99.90;;;;;;5135428;27;19967;-56
2023/01/28 10:38:12;;;;;;;;;;;3.90;99.90;;;;;;5135662;27;20018;-56
2023/01/28 10:40:39;;;;;;;;;;;3.90;99.90;;;;;;5136253;27;20161;-56
2023/01/28 10:43:04;;;;;;;;;;;4.10;99.90;;;;;;5122096;27;19922;-56
2023/01/28 10:45:48;;;;;;;;;;;4.30;99.90;;;;;;5135587;27;19911;-55
2023/01/28 10:48:22;;;;;;;;;;;4.40;99.90;;;;;;5121833;27;19919;-56
2023/01/28 10:50:55;;;;;;;;;;;4.70;99.90;;;;;;5136036;27;19914;-56
2023/01/28 10:53:40;;;;;;;;;;;4.90;99.90;;;;;;5136000;27;19908;-58
2023/01/28 10:56:07;;;;;;;;;;;4.90;99.90;;;;;;5134904;27;19954;-58
2023/01/28 10:58:34;;;;;;;;;;;4.90;99.90;;;;;;5135713;27;20354;-55
2023/01/28 11:01:01;;;;;;;;;;;4.90;99.90;;;;;;5135672;27;19947;-58
2023/01/28 11:03:29;;;;;;;;;;;4.90;99.90;;;;;;5135025;27;20325;-57
2023/01/28 11:05:55;;;;;;;;;;;5.00;99.90;;;;;;5135644;27;19946;-59
2023/01/28 11:08:23;;;;;;;;;;;5.00;99.90;;;;;;5135587;27;19908;-57
2023/01/28 11:10:49;;;;;;;;;;;5.00;99.90;;;;;;5134870;27;19951;-58
2023/01/28 11:13:24;;;;;;;;;;;4.80;99.90;;;;;;5135546;27;19907;-59
2023/01/28 11:16:12;;;;;;;;;;;4.70;99.90;;;;;;5134634;27;20591;-58
2023/01/28 11:18:47;;;;;;;;;;;4.60;99.90;;;;;;5134438;27;19907;-56
2023/01/28 11:21:18;;;;;;;;;;;4.50;99.90;;;;;;5131674;27;19947;-58
2023/01/28 11:24:07;;;;;;;;;;;4.60;99.90;;;;;;5115522;28;19907;-57
2023/01/28 11:26:37;;;;;;;;;;;4.70;99.90;;;;;;5113625;27;20048;-56
2023/01/28 11:29:03;;;;;;;;;;;4.90;99.90;;;;;;5135878;27;19907;-57
2023/01/28 11:31:36;;;;;;;;;;;5.00;99.90;;;;;;5135270;27;19908;-56
2023/01/28 11:34:03;;;;;;;;;;;5.10;99.90;;;;;;5135614;27;19908;-59
2023/01/28 11:36:30;;;;;;;;;;;5.20;99.90;;;;;;5135693;27;19922;-56
2023/01/28 11:39:15;;;;;;;;;;;5.40;99.90;;;;;;5122730;27;20037;-58
2023/01/28 11:41:40;;;;;;;;;;;5.60;99.90;;;;;;5114342;28;19965;-58
2023/01/28 11:44:25;;;;;;;;;;;5.80;99.90;;;;;;5114306;28;19908;-57
2023/01/28 11:46:50;;;;;;;;;;;5.70;99.90;;;;;;5114431;28;19999;-56
2023/01/28 11:49:22;;;;;;;;;;;5.70;99.90;;;;;;5113758;28;20447;-56
2023/01/28 11:52:05;;;;;;;;;;;5.60;99.90;;;;;;5113556;28;19908;-56
2023/01/28 11:54:43;;;;;;;;;;;5.50;99.90;;;;;;5123382;27;20072;-56
2023/01/28 11:57:16;;;;;;;;;;;5.50;99.90;;;;;;5122715;27;20003;-56
2023/01/28 11:59:52;;;;;;;;;;;5.40;99.90;;;;;;5122268;27;19908;-57
2023/01/28 12:02:17;;;;;;;;;;;5.40;99.90;;;;;;5123001;27;19990;-57
2023/01/28 12:04:45;;;;;;;;;;;5.40;99.90;;;;;;5124502;27;20022;-58
2023/01/28 12:07:17;;;;;;;;;;;5.30;99.90;;;;;;5123694;27;19907;-57
2023/01/28 12:09:55;;;;;;;;;;;5.30;99.90;;;;;;5124148;27;19947;-56
2023/01/28 12:12:40;;;;;;;;;;;5.30;99.90;;;;;;5122887;27;19930;-56
2023/01/28 12:15:24;;;;;;;;;;;5.30;99.90;;;;;;5113687;28;20278;-57
2023/01/28 12:17:53;;;;;;;;;;;5.30;99.90;;;;;;5117658;27;20007;-55
2023/01/28 12:20:30;;;;;;;;;;;5.30;99.90;;;;;;5129345;27;19981;-57
2023/01/28 12:22:56;;;;;;;;;;;5.30;99.90;;;;;;5122124;27;19908;-56
2023/01/28 12:25:39;;;;;;;;;;;5.40;99.90;;;;;;5123061;27;19915;-57
2023/01/28 12:28:11;;;;;;;;;;;5.40;99.90;;;;;;5125721;27;19922;-56
2023/01/28 12:30:51;;;;;;;;;;;5.40;99.90;;;;;;5113350;28;19908;-56
2023/01/28 12:33:26;;;;;;;;;;;5.40;99.90;;;;;;5113357;28;19950;-56
2023/01/28 12:36:06;;;;;;;;;;;5.40;99.90;;;;;;5113299;28;19916;-56
2023/01/28 12:38:39;;;;;;;;;;;5.40;99.90;;;;;;5121491;27;19911;-56
2023/01/28 12:41:16;;;;;;;;;;;5.30;99.90;;;;;;5133148;27;19942;-56
2023/01/28 12:43:48;;;;;;;;;;;5.30;99.90;;;;;;5133939;27;19908;-56
2023/01/28 12:46:26;;;;;;;;;;;5.30;99.90;;;;;;5129571;27;19934;-57
2023/01/28 12:48:55;;;;;;;;;;;5.20;99.90;;;;;;5128803;27;20015;-56
2023/01/28 12:51:27;;;;;;;;;;;5.10;99.90;;;;;;5133849;27;19973;-55
2023/01/28 12:54:01;;;;;;;;;;;5.10;99.90;;;;;;5133798;27;19942;-55
2023/01/28 12:56:38;;;;;;;;;;;5.10;99.90;;;;;;5128795;27;19919;-56
2023/01/28 12:59:24;;;;;;;;;;;5.20;99.90;;;;;;5124752;28;19907;-57
2023/01/28 13:02:05;;;;;;;;;;;5.30;99.90;;;;;;5133029;28;20240;-56
2023/01/28 13:04:53;;;;;;;;;;;5.50;99.90;;;;;;5131834;28;20414;-57
2023/01/28 13:07:24;;;;;;;;;;;5.70;99.90;;;;;;5132635;28;19936;-56
2023/01/28 13:10:03;;;;;;;;;;;5.80;99.90;;;;;;5133602;28;19907;-56
2023/01/28 13:12:29;;;;;;;;;;;5.80;99.90;;;;;;5138031;27;19922;-56
2023/01/28 13:14:55;;;;;;;;;;;5.90;99.90;;;;;;5135264;27;19946;-57
2023/01/28 13:17:25;;;;;;;;;;;5.90;99.90;;;;;;5137322;27;20338;-56
2023/01/28 13:19:51;;;;;;;;;;;5.90;99.90;;;;;;5138227;27;20338;-56
2023/01/28 13:22:31;;;;;;;;;;;6.00;99.90;;;;;;5138072;27;19907;-56
2023/01/28 13:24:59;;;;;;;;;;;6.10;99.90;;;;;;5137738;27;19911;-57
2023/01/28 13:27:25;;;;;;;;;;;6.10;99.90;;;;;;5138117;27;20486;-57
2023/01/28 13:30:01;;;;;;;;;;;6.10;99.90;;;;;;5137617;27;19907;-56
2023/01/28 13:32:29;;;;;;;;;;;6.20;99.90;;;;;;5138006;27;20370;-57
2023/01/28 13:34:56;;;;;;;;;;;6.40;99.90;;;;;;5137876;27;20316;-56
2023/01/28 13:37:30;;;;;;;;;;;6.60;99.90;;;;;;5137458;27;19915;-56
2023/01/28 13:40:19;;;;;;;;;;;6.60;99.90;;;;;;5137804;27;19907;-56
2023/01/28 13:42:44;;;;;;;;;;;6.60;99.90;;;;;;5123708;27;20002;-56
2023/01/28 13:45:15;;;;;;;;;;;6.60;99.90;;;;;;5137051;27;20003;-57
2023/01/28 13:47:45;;;;;;;;;;;6.40;99.90;;;;;;5136397;27;19969;-57
2023/01/28 13:50:16;;;;;;;;;;;6.30;99.90;;;;;;5135684;27;19964;-57
2023/01/28 13:52:58;;;;;;;;;;;6.00;99.90;;;;;;5136993;27;19976;-56
2023/01/28 13:55:25;;;;;;;;;;;6.00;99.90;;;;;;5136716;27;19920;-56
2023/01/28 13:58:03;;;;;;;;;;;6.20;99.90;;;;;;5117720;27;19955;-56
2023/01/28 14:00:47;;;;;;;;;;;6.40;99.90;;;;;;5123663;27;19911;-57
2023/01/28 14:03:27;;;;;;;;;;;6.70;99.90;;;;;;5117437;27;19916;-57
2023/01/28 14:05:58;;;;;;;;;;;6.80;99.90;;;;;;5115574;28;19922;-58
2023/01/28 14:08:23;;;;;;;;;;;6.90;99.90;;;;;;5117189;27;20274;-56
2023/01/28 14:10:52;;;;;;;;;;;7.00;99.90;;;;;;5135497;27;19907;-57
2023/01/28 14:13:23;;;;;;;;;;;7.10;99.90;;;;;;5124088;27;19994;-56
2023/01/28 14:16:04;;;;;;;;;;;7.20;99.90;;;;;;5136172;27;19916;-57
2023/01/28 14:18:32;;;;;;;;;;;7.40;99.90;;;;;;5118091;27;19911;-56
2023/01/28 14:21:00;;;;;;;;;;;7.60;99.90;;;;;;5115359;28;19908;-57
2023/01/28 14:23:29;;;;;;;;;;;7.80;98.60;;;;;;5115420;28;19915;-57
2023/01/28 14:26:10;;;;;;;;;;;7.90;97.60;;;;;;5114934;28;19992;-56
2023/01/28 14:28:38;;;;;;;;;;;8.20;99.90;;;;;;5131064;27;19919;-57
2023/01/28 14:31:11;;;;;;;;;;;8.30;96.30;;;;;;5136363;27;19997;-57
2023/01/28 14:33:36;;;;;;;;;;;8.20;97.20;;;;;;5135831;27;19907;-57
2023/01/28 14:36:03;;;;;;;;;;;7.80;98.20;;;;;;5128272;27;20002;-56
2023/01/28 14:38:32;;;;;;;;;;;7.40;97.30;;;;;;5115717;28;19907;-56
2023/01/28 14:40:58;;;;;;;;;;;7.00;97.50;;;;;;5114750;28;19908;-56
2023/01/28 14:43:25;;;;;;;;;;;6.70;99.20;;;;;;5125061;27;19908;-56
2023/01/28 14:46:14;;;;;;;;;;;6.50;99.90;;;;;;5135169;27;19951;-56
2023/01/28 14:48:51;;;;;;;;;;;6.30;99.90;;;;;;5095457;27;19911;-55
2023/01/28 14:51:35;;;;;;;;;;;6.20;99.90;;;;;;5135982;27;19908;-56
2023/01/28 14:54:16;;;;;;;;;;;6.00;99.90;;;;;;5135617;27;19907;-55
2023/01/28 14:56:57;;;;;;;;;;;5.90;99.90;;;;;;5135838;27;19916;-55
2023/01/28 14:59:28;;;;;;;;;;;5.70;99.90;;;;;;5135803;27;19951;-55
2023/01/28 15:01:55;;;;;;;;;;;5.60;99.90;;;;;;5135890;27;19914;-55
2023/01/28 15:04:33;;;;;;;;;;;5.60;99.90;;;;;;5136501;27;19907;-56
2023/01/28 15:07:17;;;;;;;;;;;5.50;99.90;;;;;;5135149;27;19916;-55
2023/01/28 15:09:43;;;;;;;;;;;5.50;99.90;;;;;;5134828;27;20385;-55
2023/01/28 15:12:08;;;;;;;;;;;5.40;99.90;;;;;;5135511;27;19911;-55